sensor_id;sensor_type;location;lat;lon;timestamp;temperature;humidity
9808;DHT22;4943;52.550;13.462;2023-03-01T00:01:20;2.40;99.90
9808;DHT22;4943;52.550;13.462;2023-03-01T00:03:48;2.30;99.90
9808;DHT22;4943;52.550;13.462;2023-03-01T00:06:17;2.30;99.90
9808;DHT22;4943;52.550;13.462;2023-03-01T00:08:46;2.40;99.90
9808;DHT22;4943;52.550;13.462;2023-03-01T00:11:16;2.30;99.90
9808;DHT22;4943;52.550;13.462;2023-03-01T00:13:46;2.30;99.90
9808;DHT22;4943;52.550;13.462;2023-03-01T00:16:16;2.20;99.90
9808;DHT22;4943;52.550;13.462;2023-03-01T00:18:45;2.20;99.90
9808;DHT22;4943;52.550;13.462;2023-03-01T00:21:13;2.20;99.90
9808;DHT22;4943;52.550;13.462;2023-03-01T00:23:41;2.20;99.90
9808;DHT22;4943;52.550;13.462;2023-03-01T00:26:13;2.30;99.90
9808;DHT22;4943;52.550;13.462;2023-03-01T00:28:42;2.30;99.90
9808;DHT22;4943;52.550;13.462;2023-03-01T00:31:12;2.30;99.90
9808;DHT22;4943;52.550;13.462;2023-03-01T00:33:41;2.30;99.90
9808;DHT22;4943;52.550;13.462;2023-03-01T00:36:11;2.20;99.90
9808;DHT22;4943;52.550;13.462;2023-03-01T00:38:41;2.20;99.90
9808;DHT22;4943;52.550;13.462;2023-03-01T00:41:12;2.20;99.90
9808;DHT22;4943;52.550;13.462;2023-03-01T00:43:40;2.20;99.90
9808;DHT22;4943;52.550;13.462;2023-03-01T00:46:11;2.20;99.90
9808;DHT22;4943;52.550;13.462;2023-03-01T00:48:39;2.10;99.90
9808;DHT22;4943;52.550;13.462;2023-03-01T00:51:09;2.20;99.90
9808;DHT22;4943;52.550;13.462;2023-03-01T00:53:38;2.10;99.90
9808;DHT22;4943;52.550;13.462;2023-03-01T00:56:08;2.10;99.90
9808;DHT22;4943;52.550;13.462;2023-03-01T00:58:38;2.10;99.90
9808;DHT22;4943;52.550;13.462;2023-03-01T01:01:09;2.10;99.90
9808;DHT22;4943;52.550;13.462;2023-03-01T01:03:48;2.10;99.90
9808;DHT22;4943;52.550;13.462;2023-03-01T01:06:18;2.00;99.90
9808;DHT22;4943;52.550;13.462;2023-03-01T01:08:47;2.00;99.90
9808;DHT22;4943;52.550;13.462;2023-03-01T01:11:16;2.00;99.90
9808;DHT22;4943;52.550;13.462;2023-03-01T01:13:46;2.00;99.90
9808;DHT22;4943;52.550;13.462;2023-03-01T01:16:15;2.00;99.90
9808;DHT22;4943;52.550;13.462;2023-03-01T01:18:44;2.00;99.90
9808;DHT22;4943;52.550;13.462;2023-03-01T01:21:15;1.90;99.90
9808;DHT22;4943;52.550;13.462;2023-03-01T01:23:44;1.90;99.90
9808;DHT22;4943;52.550;13.462;2023-03-01T01:26:15;1.90;99.90
9808;DHT22;4943;52.550;13.462;2023-03-01T01:28:44;1.90;99.90
9808;DHT22;4943;52.550;13.462;2023-03-01T01:31:13;1.90;99.90
9808;DHT22;4943;52.550;13.462;2023-03-01T01:33:41;1.80;99.90
9808;DHT22;4943;52.550;13.462;2023-03-01T01:36:09;1.90;99.90
9808;DHT22;4943;52.550;13.462;2023-03-01T01:38:38;1.80;99.90
9808;DHT22;4943;52.550;13.462;2023-03-01T01:41:06;1.90;99.90
9808;DHT22;4943;52.550;13.462;2023-03-01T01:43:36;1.80;99.90
9808;DHT22;4943;52.550;13.462;2023-03-01T01:46:10;1.80;99.90
9808;DHT22;4943;52.550;13.462;2023-03-01T01:48:45;1.80;99.90
9808;DHT22;4943;52.550;13.462;2023-03-01T01:51:17;1.80;99.90
9808;DHT22;4943;52.550;13.462;2023-03-01T01:53:47;1.80;99.90
9808;DHT22;4943;52.550;13.462;2023-03-01T01:56:19;1.70;99.90
9808;DHT22;4943;52.550;13.462;2023-03-01T01:58:48;1.70;99.90
9808;DHT22;4943;52.550;13.462;2023-03-01T02:01:17;1.70;99.90
9808;DHT22;4943;52.550;13.462;2023-03-01T02:03:46;1.70;99.90
9808;DHT22;4943;52.550;13.462;2023-03-01T02:06:19;1.70;99.90
9808;DHT22;4943;52.550;13.462;2023-03-01T02:08:49;1.70;99.90
9808;DHT22;4943;52.550;13.462;2023-03-01T02:11:18;1.70;99.90
9808;DHT22;4943;52.550;13.462;2023-03-01T02:13:47;1.70;99.90
9808;DHT22;4943;52.550;13.462;2023-03-01T02:16:17;1.70;99.90
9808;DHT22;4943;52.550;13.462;2023-03-01T02:18:45;1.70;99.90
9808;DHT22;4943;52.550;13.462;2023-03-01T02:21:30;1.70;99.90
9808;DHT22;4943;52.550;13.462;2023-03-01T02:24:04;1.70;99.90
9808;DHT22;4943;52.550;13.462;2023-03-01T02:26:39;1.70;99.90
9808;DHT22;4943;52.550;13.462;2023-03-01T02:29:09;1.70;99.90
9808;DHT22;4943;52.550;13.462;2023-03-01T02:31:37;1.60;99.90
9808;DHT22;4943;52.550;13.462;2023-03-01T02:34:15;1.60;99.90
9808;DHT22;4943;52.550;13.462;2023-03-01T02:36:46;1.60;99.90
9808;DHT22;4943;52.550;13.462;2023-03-01T02:39:17;1.50;99.90
9808;DHT22;4943;52.550;13.462;2023-03-01T02:41:49;1.60;99.90
9808;DHT22;4943;52.550;13.462;2023-03-01T02:44:19;1.50;99.90
9808;DHT22;4943;52.550;13.462;2023-03-01T02:46:50;1.50;99.90
9808;DHT22;4943;52.550;13.462;2023-03-01T02:49:24;1.50;99.90
9808;DHT22;4943;52.550;13.462;2023-03-01T02:55:03;1.50;99.90
9808;DHT22;4943;52.550;13.462;2023-03-01T02:57:35;1.50;99.90
9808;DHT22;4943;52.550;13.462;2023-03-01T03:00:08;1.50;99.90
9808;DHT22;4943;52.550;13.462;2023-03-01T03:02:37;1.50;99.90
9808;DHT22;4943;52.550;13.462;2023-03-01T03:05:07;1.50;99.90
9808;DHT22;4943;52.550;13.462;2023-03-01T03:07:38;1.40;99.90
9808;DHT22;4943;52.550;13.462;2023-03-01T03:10:10;1.40;99.90
9808;DHT22;4943;52.550;13.462;2023-03-01T03:12:39;1.40;99.90
9808;DHT22;4943;52.550;13.462;2023-03-01T03:15:10;1.40;99.90
9808;DHT22;4943;52.550;13.462;2023-03-01T03:17:40;1.40;99.90
9808;DHT22;4943;52.550;13.462;2023-03-01T03:20:13;1.40;99.90
9808;DHT22;4943;52.550;13.462;2023-03-01T03:22:47;1.40;99.90
9808;DHT22;4943;52.550;13.462;2023-03-01T03:25:15;1.30;99.90
9808;DHT22;4943;52.550;13.462;2023-03-01T03:27:45;1.30;99.90
9808;DHT22;4943;52.550;13.462;2023-03-01T03:30:16;1.30;99.90
9808;DHT22;4943;52.550;13.462;2023-03-01T03:32:46;1.30;99.90
9808;DHT22;4943;52.550;13.462;2023-03-01T03:35:19;1.30;99.90
9808;DHT22;4943;52.550;13.462;2023-03-01T03:37:48;1.30;99.90
9808;DHT22;4943;52.550;13.462;2023-03-01T03:40:36;1.30;99.90
9808;DHT22;4943;52.550;13.462;2023-03-01T03:43:06;1.30;99.90
9808;DHT22;4943;52.550;13.462;2023-03-01T03:45:36;1.20;99.90
9808;DHT22;4943;52.550;13.462;2023-03-01T03:48:07;1.20;99.90
9808;DHT22;4943;52.550;13.462;2023-03-01T03:50:36;1.20;99.90
9808;DHT22;4943;52.550;13.462;2023-03-01T03:53:06;1.20;99.90
9808;DHT22;4943;52.550;13.462;2023-03-01T03:55:35;1.20;99.90
9808;DHT22;4943;52.550;13.462;2023-03-01T03:58:08;1.20;99.90
9808;DHT22;4943;52.550;13.462;2023-03-01T04:00:39;1.20;99.90
9808;DHT22;4943;52.550;13.462;2023-03-01T04:03:08;1.20;99.90
9808;DHT22;4943;52.550;13.462;2023-03-01T04:05:38;1.20;99.90
9808;DHT22;4943;52.550;13.462;2023-03-01T04:08:07;1.10;99.90
9808;DHT22;4943;52.550;13.462;2023-03-01T04:10:37;1.10;99.90
9808;DHT22;4943;52.550;13.462;2023-03-01T04:13:08;1.10;99.90
9808;DHT22;4943;52.550;13.462;2023-03-01T04:15:39;1.10;99.90
9808;DHT22;4943;52.550;13.462;2023-03-01T04:18:08;1.10;99.90
9808;DHT22;4943;52.550;13.462;2023-03-01T04:20:36;1.10;99.90
9808;DHT22;4943;52.550;13.462;2023-03-01T04:23:07;1.10;99.90
9808;DHT22;4943;52.550;13.462;2023-03-01T04:25:45;1.10;99.90
9808;DHT22;4943;52.550;13.462;2023-03-01T04:28:16;1.10;99.90
9808;DHT22;4943;52.550;13.462;2023-03-01T04:30:45;1.10;99.90
9808;DHT22;4943;52.550;13.462;2023-03-01T04:33:13;1.10;99.90
9808;DHT22;4943;52.550;13.462;2023-03-01T04:35:41;1.10;99.90
9808;DHT22;4943;52.550;13.462;2023-03-01T04:38:10;1.10;99.90
9808;DHT22;4943;52.550;13.462;2023-03-01T04:40:38;1.10;99.90
9808;DHT22;4943;52.550;13.462;2023-03-01T04:43:09;1.00;99.90
9808;DHT22;4943;52.550;13.462;2023-03-01T04:45:38;1.00;99.90
9808;DHT22;4943;52.550;13.462;2023-03-01T04:48:07;1.00;99.90
9808;DHT22;4943;52.550;13.462;2023-03-01T04:50:36;1.00;99.90
9808;DHT22;4943;52.550;13.462;2023-03-01T04:53:04;1.00;99.90
9808;DHT22;4943;52.550;13.462;2023-03-01T04:55:33;1.00;99.90
9808;DHT22;4943;52.550;13.462;2023-03-01T04:58:01;0.90;99.90
9808;DHT22;4943;52.550;13.462;2023-03-01T05:00:29;0.90;99.90
9808;DHT22;4943;52.550;13.462;2023-03-01T05:02:59;0.90;99.90
9808;DHT22;4943;52.550;13.462;2023-03-01T05:05:32;0.90;99.90
9808;DHT22;4943;52.550;13.462;2023-03-01T05:08:03;0.90;99.90
9808;DHT22;4943;52.550;13.462;2023-03-01T05:10:32;0.90;99.90
9808;DHT22;4943;52.550;13.462;2023-03-01T05:13:03;0.90;99.90
9808;DHT22;4943;52.550;13.462;2023-03-01T05:15:31;0.90;99.90
9808;DHT22;4943;52.550;13.462;2023-03-01T05:17:59;0.90;99.90
9808;DHT22;4943;52.550;13.462;2023-03-01T05:20:29;0.90;99.90
9808;DHT22;4943;52.550;13.462;2023-03-01T05:22:59;0.90;99.90
9808;DHT22;4943;52.550;13.462;2023-03-01T05:25:32;0.90;99.90
9808;DHT22;4943;52.550;13.462;2023-03-01T05:28:01;0.90;99.90
9808;DHT22;4943;52.550;13.462;2023-03-01T05:30:31;0.90;99.90
9808;DHT22;4943;52.550;13.462;2023-03-01T05:32:59;0.90;99.90
9808;DHT22;4943;52.550;13.462;2023-03-01T05:35:29;0.80;99.90
9808;DHT22;4943;52.550;13.462;2023-03-01T05:37:59;0.80;99.90
9808;DHT22;4943;52.550;13.462;2023-03-01T05:40:27;0.80;99.90
9808;DHT22;4943;52.550;13.462;2023-03-01T05:42:56;0.80;99.90
9808;DHT22;4943;52.550;13.462;2023-03-01T05:45:26;0.80;99.90
9808;DHT22;4943;52.550;13.462;2023-03-01T05:47:54;0.80;99.90
9808;DHT22;4943;52.550;13.462;2023-03-01T05:50:24;0.80;99.90
9808;DHT22;4943;52.550;13.462;2023-03-01T05:52:58;0.80;99.90
9808;DHT22;4943;52.550;13.462;2023-03-01T05:55:28;0.80;99.90
9808;DHT22;4943;52.550;13.462;2023-03-01T05:57:58;0.70;99.90
9808;DHT22;4943;52.550;13.462;2023-03-01T06:00:28;0.70;99.90
9808;DHT22;4943;52.550;13.462;2023-03-01T06:02:58;0.70;99.90
9808;DHT22;4943;52.550;13.462;2023-03-01T06:05:27;0.70;99.90
9808;DHT22;4943;52.550;13.462;2023-03-01T06:07:58;0.70;99.90
9808;DHT22;4943;52.550;13.462;2023-03-01T06:10:27;0.70;99.90
9808;DHT22;4943;52.550;13.462;2023-03-01T06:12:56;0.70;99.90
9808;DHT22;4943;52.550;13.462;2023-03-01T06:15:25;0.70;99.90
9808;DHT22;4943;52.550;13.462;2023-03-01T06:17:54;0.80;99.90
9808;DHT22;4943;52.550;13.462;2023-03-01T06:20:26;0.80;99.90
9808;DHT22;4943;52.550;13.462;2023-03-01T06:22:56;0.90;99.90
9808;DHT22;4943;52.550;13.462;2023-03-01T06:25:26;0.90;99.90
9808;DHT22;4943;52.550;13.462;2023-03-01T06:27:54;0.90;99.90
9808;DHT22;4943;52.550;13.462;2023-03-01T06:30:24;0.90;99.90
9808;DHT22;4943;52.550;13.462;2023-03-01T06:32:53;1.00;99.90
9808;DHT22;4943;52.550;13.462;2023-03-01T06:35:27;1.00;99.90
9808;DHT22;4943;52.550;13.462;2023-03-01T06:37:59;1.00;99.90
9808;DHT22;4943;52.550;13.462;2023-03-01T06:40:28;1.00;99.90
9808;DHT22;4943;52.550;13.462;2023-03-01T06:42:57;1.00;99.90
9808;DHT22;4943;52.550;13.462;2023-03-01T06:45:25;1.00;99.90
9808;DHT22;4943;52.550;13.462;2023-03-01T06:48:01;1.00;99.90
9808;DHT22;4943;52.550;13.462;2023-03-01T06:50:30;1.00;99.90
9808;DHT22;4943;52.550;13.462;2023-03-01T06:52:59;1.10;99.90
9808;DHT22;4943;52.550;13.462;2023-03-01T06:55:28;1.10;99.90
9808;DHT22;4943;52.550;13.462;2023-03-01T06:57:56;1.20;99.90
9808;DHT22;4943;52.550;13.462;2023-03-01T07:00:24;1.30;99.90
9808;DHT22;4943;52.550;13.462;2023-03-01T07:02:53;1.30;99.90
9808;DHT22;4943;52.550;13.462;2023-03-01T07:05:21;1.40;99.90
9808;DHT22;4943;52.550;13.462;2023-03-01T07:07:49;1.40;99.90
9808;DHT22;4943;52.550;13.462;2023-03-01T07:10:19;1.50;99.90
9808;DHT22;4943;52.550;13.462;2023-03-01T07:12:47;1.50;99.90
9808;DHT22;4943;52.550;13.462;2023-03-01T07:15:15;1.50;99.90
9808;DHT22;4943;52.550;13.462;2023-03-01T07:17:43;1.50;99.90
9808;DHT22;4943;52.550;13.462;2023-03-01T07:20:12;1.60;99.90
9808;DHT22;4943;52.550;13.462;2023-03-01T07:22:40;1.60;99.90
9808;DHT22;4943;52.550;13.462;2023-03-01T07:25:09;1.70;99.90
9808;DHT22;4943;52.550;13.462;2023-03-01T07:27:38;1.70;99.90
9808;DHT22;4943;52.550;13.462;2023-03-01T07:30:08;1.80;99.90
9808;DHT22;4943;52.550;13.462;2023-03-01T07:32:36;1.90;99.90
9808;DHT22;4943;52.550;13.462;2023-03-01T07:35:05;1.90;99.90
9808;DHT22;4943;52.550;13.462;2023-03-01T07:37:33;2.00;99.90
9808;DHT22;4943;52.550;13.462;2023-03-01T07:40:02;2.00;99.90
9808;DHT22;4943;52.550;13.462;2023-03-01T07:42:30;2.10;99.90
9808;DHT22;4943;52.550;13.462;2023-03-01T07:44:59;2.10;99.90
9808;DHT22;4943;52.550;13.462;2023-03-01T07:47:27;2.20;99.90
9808;DHT22;4943;52.550;13.462;2023-03-01T07:49:55;2.20;99.90
9808;DHT22;4943;52.550;13.462;2023-03-01T07:52:23;2.30;99.90
9808;DHT22;4943;52.550;13.462;2023-03-01T07:54:51;2.40;99.90
9808;DHT22;4943;52.550;13.462;2023-03-01T07:57:19;2.40;99.90
9808;DHT22;4943;52.550;13.462;2023-03-01T07:59:49;2.50;99.90
9808;DHT22;4943;52.550;13.462;2023-03-01T08:02:18;2.50;99.90
9808;DHT22;4943;52.550;13.462;2023-03-01T08:04:46;2.60;99.90
9808;DHT22;4943;52.550;13.462;2023-03-01T08:07:14;2.70;99.90
9808;DHT22;4943;52.550;13.462;2023-03-01T08:09:42;2.70;99.90
9808;DHT22;4943;52.550;13.462;2023-03-01T08:12:10;2.80;99.90
9808;DHT22;4943;52.550;13.462;2023-03-01T08:14:38;2.90;99.90
9808;DHT22;4943;52.550;13.462;2023-03-01T08:17:06;3.00;99.90
9808;DHT22;4943;52.550;13.462;2023-03-01T08:19:36;3.10;99.90
9808;DHT22;4943;52.550;13.462;2023-03-01T08:22:04;3.10;99.90
9808;DHT22;4943;52.550;13.462;2023-03-01T08:24:32;3.20;99.90
9808;DHT22;4943;52.550;13.462;2023-03-01T08:27:00;3.30;99.90
9808;DHT22;4943;52.550;13.462;2023-03-01T08:29:30;3.30;99.90
9808;DHT22;4943;52.550;13.462;2023-03-01T08:31:58;3.40;99.90
9808;DHT22;4943;52.550;13.462;2023-03-01T08:34:26;3.50;99.90
9808;DHT22;4943;52.550;13.462;2023-03-01T08:36:56;3.50;99.90
9808;DHT22;4943;52.550;13.462;2023-03-01T08:39:24;3.60;99.90
9808;DHT22;4943;52.550;13.462;2023-03-01T08:41:52;3.60;99.90
9808;DHT22;4943;52.550;13.462;2023-03-01T08:44:20;3.70;99.90
9808;DHT22;4943;52.550;13.462;2023-03-01T08:46:49;3.80;99.90
9808;DHT22;4943;52.550;13.462;2023-03-01T08:49:19;3.90;99.90
9808;DHT22;4943;52.550;13.462;2023-03-01T08:51:48;3.90;99.90
9808;DHT22;4943;52.550;13.462;2023-03-01T08:54:19;4.00;99.90
9808;DHT22;4943;52.550;13.462;2023-03-01T08:56:47;4.10;99.90
9808;DHT22;4943;52.550;13.462;2023-03-01T08:59:16;4.10;99.90
9808;DHT22;4943;52.550;13.462;2023-03-01T09:01:45;4.20;99.90
9808;DHT22;4943;52.550;13.462;2023-03-01T09:04:14;4.20;99.90
9808;DHT22;4943;52.550;13.462;2023-03-01T09:06:42;4.30;99.90
9808;DHT22;4943;52.550;13.462;2023-03-01T09:09:13;4.30;99.90
9808;DHT22;4943;52.550;13.462;2023-03-01T09:11:44;4.30;99.90
9808;DHT22;4943;52.550;13.462;2023-03-01T09:14:13;4.40;99.90
9808;DHT22;4943;52.550;13.462;2023-03-01T09:16:42;4.40;99.90
9808;DHT22;4943;52.550;13.462;2023-03-01T09:19:10;4.50;99.90
9808;DHT22;4943;52.550;13.462;2023-03-01T09:21:39;4.50;99.90
9808;DHT22;4943;52.550;13.462;2023-03-01T09:24:12;4.60;99.90
9808;DHT22;4943;52.550;13.462;2023-03-01T09:26:40;4.60;99.90
9808;DHT22;4943;52.550;13.462;2023-03-01T09:29:10;4.70;99.90
9808;DHT22;4943;52.550;13.462;2023-03-01T09:31:38;4.70;99.90
9808;DHT22;4943;52.550;13.462;2023-03-01T09:34:07;4.80;99.90
9808;DHT22;4943;52.550;13.462;2023-03-01T09:36:36;4.80;99.90
9808;DHT22;4943;52.550;13.462;2023-03-01T09:39:04;4.80;99.90
9808;DHT22;4943;52.550;13.462;2023-03-01T09:41:54;4.90;99.90
9808;DHT22;4943;52.550;13.462;2023-03-01T09:44:32;4.90;99.90
9808;DHT22;4943;52.550;13.462;2023-03-01T09:47:03;4.90;99.90
9808;DHT22;4943;52.550;13.462;2023-03-01T09:49:33;5.00;99.90
9808;DHT22;4943;52.550;13.462;2023-03-01T09:52:11;5.10;99.90
9808;DHT22;4943;52.550;13.462;2023-03-01T09:54:40;5.10;99.90
9808;DHT22;4943;52.550;13.462;2023-03-01T09:57:18;5.10;99.90
9808;DHT22;4943;52.550;13.462;2023-03-01T10:00:02;5.20;99.90
9808;DHT22;4943;52.550;13.462;2023-03-01T10:02:40;5.20;99.90
9808;DHT22;4943;52.550;13.462;2023-03-01T10:05:25;5.30;99.90
9808;DHT22;4943;52.550;13.462;2023-03-01T10:08:03;5.40;99.90
9808;DHT22;4943;52.550;13.462;2023-03-01T10:10:36;5.50;99.90
9808;DHT22;4943;52.550;13.462;2023-03-01T10:13:13;5.50;99.90
9808;DHT22;4943;52.550;13.462;2023-03-01T10:15:48;5.60;99.90
9808;DHT22;4943;52.550;13.462;2023-03-01T10:18:24;5.60;99.90
9808;DHT22;4943;52.550;13.462;2023-03-01T10:20:57;5.70;99.90
9808;DHT22;4943;52.550;13.462;2023-03-01T10:23:27;5.70;99.90
9808;DHT22;4943;52.550;13.462;2023-03-01T10:26:08;5.70;99.90
9808;DHT22;4943;52.550;13.462;2023-03-01T10:28:46;5.70;99.90
9808;DHT22;4943;52.550;13.462;2023-03-01T10:31:22;5.70;99.90
9808;DHT22;4943;52.550;13.462;2023-03-01T10:33:56;5.70;99.90
9808;DHT22;4943;52.550;13.462;2023-03-01T10:36:25;5.70;99.90
9808;DHT22;4943;52.550;13.462;2023-03-01T10:38:55;5.70;99.90
9808;DHT22;4943;52.550;13.462;2023-03-01T10:41:26;5.70;99.90
9808;DHT22;4943;52.550;13.462;2023-03-01T10:43:57;5.80;99.90
9808;DHT22;4943;52.550;13.462;2023-03-01T10:46:30;5.80;99.90
9808;DHT22;4943;52.550;13.462;2023-03-01T10:49:17;5.80;99.90
9808;DHT22;4943;52.550;13.462;2023-03-01T10:51:48;5.90;99.90
9808;DHT22;4943;52.550;13.462;2023-03-01T10:54:19;5.90;99.90
9808;DHT22;4943;52.550;13.462;2023-03-01T10:56:49;6.00;99.90
9808;DHT22;4943;52.550;13.462;2023-03-01T10:59:26;6.10;99.90
9808;DHT22;4943;52.550;13.462;2023-03-01T11:02:14;6.10;99.90
9808;DHT22;4943;52.550;13.462;2023-03-01T11:05:02;6.20;99.90
9808;DHT22;4943;52.550;13.462;2023-03-01T11:07:30;6.20;99.90
9808;DHT22;4943;52.550;13.462;2023-03-01T11:09:58;6.20;99.90
9808;DHT22;4943;52.550;13.462;2023-03-01T11:12:26;6.50;99.90
9808;DHT22;4943;52.550;13.462;2023-03-01T11:14:57;6.60;99.90
9808;DHT22;4943;52.550;13.462;2023-03-01T11:17:28;6.60;99.90
9808;DHT22;4943;52.550;13.462;2023-03-01T11:20:16;6.60;99.90
9808;DHT22;4943;52.550;13.462;2023-03-01T11:22:51;6.60;99.90
9808;DHT22;4943;52.550;13.462;2023-03-01T11:25:24;6.60;99.90
9808;DHT22;4943;52.550;13.462;2023-03-01T11:27:54;6.60;99.90
9808;DHT22;4943;52.550;13.462;2023-03-01T11:30:27;6.70;99.90
9808;DHT22;4943;52.550;13.462;2023-03-01T11:33:12;6.70;99.90
9808;DHT22;4943;52.550;13.462;2023-03-01T11:35:44;6.70;99.80
9808;DHT22;4943;52.550;13.462;2023-03-01T11:38:19;6.70;99.70
9808;DHT22;4943;52.550;13.462;2023-03-01T11:40:53;6.70;98.90
9808;DHT22;4943;52.550;13.462;2023-03-01T11:43:30;6.70;99.20
9808;DHT22;4943;52.550;13.462;2023-03-01T11:49:19;6.80;99.20
9808;DHT22;4943;52.550;13.462;2023-03-01T11:51:57;6.80;99.00
9808;DHT22;4943;52.550;13.462;2023-03-01T11:54:42;6.80;98.20
9808;DHT22;4943;52.550;13.462;2023-03-01T11:57:16;6.70;98.00
9808;DHT22;4943;52.550;13.462;2023-03-01T12:00:02;6.80;98.30
9808;DHT22;4943;52.550;13.462;2023-03-01T12:05:42;6.80;97.00
9808;DHT22;4943;52.550;13.462;2023-03-01T12:08:16;6.80;97.40
9808;DHT22;4943;52.550;13.462;2023-03-01T12:10:55;6.90;97.80
9808;DHT22;4943;52.550;13.462;2023-03-01T12:13:44;7.00;97.90
9808;DHT22;4943;52.550;13.462;2023-03-01T12:16:26;7.10;98.00
9808;DHT22;4943;52.550;13.462;2023-03-01T12:19:16;7.10;97.80
9808;DHT22;4943;52.550;13.462;2023-03-01T12:22:00;7.10;97.40
9808;DHT22;4943;52.550;13.462;2023-03-01T12:24:47;7.10;97.00
9808;DHT22;4943;52.550;13.462;2023-03-01T12:27:37;7.10;97.00
9808;DHT22;4943;52.550;13.462;2023-03-01T12:30:21;7.20;97.10
9808;DHT22;4943;52.550;13.462;2023-03-01T12:32:59;7.20;96.70
9808;DHT22;4943;52.550;13.462;2023-03-01T12:35:45;7.20;97.00
9808;DHT22;4943;52.550;13.462;2023-03-01T12:38:31;7.30;97.40
9808;DHT22;4943;52.550;13.462;2023-03-01T12:41:11;7.30;97.40
9808;DHT22;4943;52.550;13.462;2023-03-01T12:43:52;7.30;97.20
9808;DHT22;4943;52.550;13.462;2023-03-01T12:46:32;7.40;97.30
9808;DHT22;4943;52.550;13.462;2023-03-01T12:49:08;7.40;96.80
9808;DHT22;4943;52.550;13.462;2023-03-01T12:51:38;7.50;97.10
9808;DHT22;4943;52.550;13.462;2023-03-01T12:54:15;7.50;97.00
9808;DHT22;4943;52.550;13.462;2023-03-01T12:56:44;7.50;97.10
9808;DHT22;4943;52.550;13.462;2023-03-01T12:59:23;7.50;96.60
9808;DHT22;4943;52.550;13.462;2023-03-01T13:01:56;7.50;96.60
9808;DHT22;4943;52.550;13.462;2023-03-01T13:04:38;7.50;96.70
9808;DHT22;4943;52.550;13.462;2023-03-01T13:07:19;7.60;96.40
9808;DHT22;4943;52.550;13.462;2023-03-01T13:09:59;7.60;96.20
9808;DHT22;4943;52.550;13.462;2023-03-01T13:12:45;7.60;96.40
9808;DHT22;4943;52.550;13.462;2023-03-01T13:15:28;7.60;95.70
9808;DHT22;4943;52.550;13.462;2023-03-01T13:17:59;7.60;95.60
9808;DHT22;4943;52.550;13.462;2023-03-01T13:20:32;7.60;95.60
9808;DHT22;4943;52.550;13.462;2023-03-01T13:23:04;7.70;95.80
9808;DHT22;4943;52.550;13.462;2023-03-01T13:25:35;7.70;95.60
9808;DHT22;4943;52.550;13.462;2023-03-01T13:28:45;7.70;95.30
9808;DHT22;4943;52.550;13.462;2023-03-01T13:34:47;7.70;95.30
9808;DHT22;4943;52.550;13.462;2023-03-01T13:37:25;7.70;95.30
9808;DHT22;4943;52.550;13.462;2023-03-01T13:40:02;7.70;95.60
9808;DHT22;4943;52.550;13.462;2023-03-01T13:42:44;7.80;95.80
9808;DHT22;4943;52.550;13.462;2023-03-01T13:45:34;7.80;96.00
9808;DHT22;4943;52.550;13.462;2023-03-01T13:48:10;7.90;96.00
9808;DHT22;4943;52.550;13.462;2023-03-01T13:50:46;7.90;96.00
9808;DHT22;4943;52.550;13.462;2023-03-01T13:53:17;7.90;95.70
9808;DHT22;4943;52.550;13.462;2023-03-01T13:55:48;7.90;95.70
9808;DHT22;4943;52.550;13.462;2023-03-01T13:58:24;7.90;95.40
9808;DHT22;4943;52.550;13.462;2023-03-01T14:00:58;7.90;95.80
9808;DHT22;4943;52.550;13.462;2023-03-01T14:03:28;8.00;95.90
9808;DHT22;4943;52.550;13.462;2023-03-01T14:06:04;8.00;95.80
9808;DHT22;4943;52.550;13.462;2023-03-01T14:08:42;8.10;95.90
9808;DHT22;4943;52.550;13.462;2023-03-01T14:14:44;8.10;95.90
9808;DHT22;4943;52.550;13.462;2023-03-01T14:20:12;8.00;95.60
9808;DHT22;4943;52.550;13.462;2023-03-01T14:22:41;8.10;96.10
9808;DHT22;4943;52.550;13.462;2023-03-01T14:25:24;8.10;96.20
9808;DHT22;4943;52.550;13.462;2023-03-01T14:27:59;8.20;96.10
9808;DHT22;4943;52.550;13.462;2023-03-01T14:30:34;8.20;96.20
9808;DHT22;4943;52.550;13.462;2023-03-01T14:33:05;8.20;96.30
9808;DHT22;4943;52.550;13.462;2023-03-01T14:35:35;8.30;96.40
9808;DHT22;4943;52.550;13.462;2023-03-01T14:38:04;8.30;96.50
9808;DHT22;4943;52.550;13.462;2023-03-01T14:40:34;8.30;96.50
9808;DHT22;4943;52.550;13.462;2023-03-01T14:43:09;8.30;96.40
9808;DHT22;4943;52.550;13.462;2023-03-01T14:45:39;8.40;96.40
9808;DHT22;4943;52.550;13.462;2023-03-01T14:48:07;8.40;96.40
9808;DHT22;4943;52.550;13.462;2023-03-01T14:50:41;8.40;96.30
9808;DHT22;4943;52.550;13.462;2023-03-01T14:53:17;8.40;96.00
9808;DHT22;4943;52.550;13.462;2023-03-01T14:55:47;8.40;96.00
9808;DHT22;4943;52.550;13.462;2023-03-01T14:58:22;8.40;96.10
9808;DHT22;4943;52.550;13.462;2023-03-01T15:00:53;8.40;96.10
9808;DHT22;4943;52.550;13.462;2023-03-01T15:03:30;8.40;95.90
9808;DHT22;4943;52.550;13.462;2023-03-01T15:06:00;8.30;95.60
9808;DHT22;4943;52.550;13.462;2023-03-01T15:08:31;8.30;95.70
9808;DHT22;4943;52.550;13.462;2023-03-01T15:11:03;8.30;95.80
9808;DHT22;4943;52.550;13.462;2023-03-01T15:13:35;8.30;96.00
9808;DHT22;4943;52.550;13.462;2023-03-01T15:16:09;8.40;96.10
9808;DHT22;4943;52.550;13.462;2023-03-01T15:18:43;8.40;96.10
9808;DHT22;4943;52.550;13.462;2023-03-01T15:21:17;8.40;96.20
9808;DHT22;4943;52.550;13.462;2023-03-01T15:23:49;8.40;96.20
9808;DHT22;4943;52.550;13.462;2023-03-01T15:26:25;8.40;96.20
9808;DHT22;4943;52.550;13.462;2023-03-01T15:28:56;8.40;96.00
9808;DHT22;4943;52.550;13.462;2023-03-01T15:31:28;8.40;95.80
9808;DHT22;4943;52.550;13.462;2023-03-01T15:34:19;8.40;96.10
9808;DHT22;4943;52.550;13.462;2023-03-01T15:36:49;8.40;96.10
9808;DHT22;4943;52.550;13.462;2023-03-01T15:39:39;8.40;95.90
9808;DHT22;4943;52.550;13.462;2023-03-01T15:42:11;8.40;96.00
9808;DHT22;4943;52.550;13.462;2023-03-01T15:44:41;8.40;95.90
9808;DHT22;4943;52.550;13.462;2023-03-01T15:47:28;8.40;96.00
9808;DHT22;4943;52.550;13.462;2023-03-01T15:49:58;8.40;96.10
9808;DHT22;4943;52.550;13.462;2023-03-01T15:52:28;8.40;96.20
9808;DHT22;4943;52.550;13.462;2023-03-01T15:55:00;8.40;96.20
9808;DHT22;4943;52.550;13.462;2023-03-01T15:57:28;8.40;96.20
9808;DHT22;4943;52.550;13.462;2023-03-01T15:59:56;8.40;96.20
9808;DHT22;4943;52.550;13.462;2023-03-01T16:02:26;8.40;96.20
9808;DHT22;4943;52.550;13.462;2023-03-01T16:04:54;8.40;96.20
9808;DHT22;4943;52.550;13.462;2023-03-01T16:07:23;8.40;96.30
9808;DHT22;4943;52.550;13.462;2023-03-01T16:09:53;8.30;96.30
9808;DHT22;4943;52.550;13.462;2023-03-01T16:12:21;8.30;96.30
9808;DHT22;4943;52.550;13.462;2023-03-01T16:14:50;8.30;96.30
9808;DHT22;4943;52.550;13.462;2023-03-01T16:17:19;8.30;96.40
9808;DHT22;4943;52.550;13.462;2023-03-01T16:19:48;8.30;96.40
9808;DHT22;4943;52.550;13.462;2023-03-01T16:22:16;8.20;96.30
9808;DHT22;4943;52.550;13.462;2023-03-01T16:24:47;8.20;96.40
9808;DHT22;4943;52.550;13.462;2023-03-01T16:27:15;8.20;96.40
9808;DHT22;4943;52.550;13.462;2023-03-01T16:29:43;8.20;96.40
9808;DHT22;4943;52.550;13.462;2023-03-01T16:32:11;8.10;96.40
9808;DHT22;4943;52.550;13.462;2023-03-01T16:34:39;8.10;96.40
9808;DHT22;4943;52.550;13.462;2023-03-01T16:37:09;8.10;96.40
9808;DHT22;4943;52.550;13.462;2023-03-01T16:39:38;8.00;96.40
9808;DHT22;4943;52.550;13.462;2023-03-01T16:42:06;7.90;96.40
9808;DHT22;4943;52.550;13.462;2023-03-01T16:44:34;7.90;96.40
9808;DHT22;4943;52.550;13.462;2023-03-01T16:47:02;7.80;96.50
9808;DHT22;4943;52.550;13.462;2023-03-01T16:49:30;7.80;96.50
9808;DHT22;4943;52.550;13.462;2023-03-01T16:51:58;7.70;96.50